createdAt,value
2018-06-08T00:00:02.066Z,8.17
2018-06-08T00:02:30.519Z,8.70
2018-06-08T00:04:58.994Z,8.53
2018-06-08T00:07:27.330Z,6.97
2018-06-08T00:09:55.630Z,8.63
2018-06-08T00:12:24.030Z,8.70
2018-06-08T00:14:52.389Z,8.33
2018-06-08T00:17:20.789Z,8.20
2018-06-08T00:19:49.144Z,7.57
2018-06-08T00:22:17.524Z,7.03
2018-06-08T00:24:45.898Z,7.90
2018-06-08T00:27:14.375Z,10.57
2018-06-08T00:29:43.036Z,8.30
2018-06-08T00:32:11.359Z,9.47
2018-06-08T00:34:39.639Z,8.27
2018-06-08T00:37:08.119Z,11.77
2018-06-08T00:39:36.500Z,8.80
2018-06-08T00:42:04.830Z,8.13
2018-06-08T00:44:33.130Z,13.47
2018-06-08T00:47:01.638Z,9.47
2018-06-08T00:49:29.942Z,8.67
2018-06-08T00:51:58.137Z,8.13
2018-06-08T00:54:26.606Z,8.07
2018-06-08T00:57:00.143Z,9.43
2018-06-08T00:59:28.487Z,8.00
2018-06-08T01:01:57.404Z,10.00
2018-06-08T01:04:25.802Z,6.40
2018-06-08T01:06:54.147Z,10.20
2018-06-08T01:09:22.436Z,8.13
2018-06-08T01:11:50.787Z,6.57
2018-06-08T01:14:20.325Z,8.37
2018-06-08T01:16:48.699Z,6.43
2018-06-08T01:19:17.215Z,6.37
2018-06-08T01:21:45.587Z,8.33
2018-06-08T01:24:14.107Z,11.27
2018-06-08T01:26:42.307Z,6.60
2018-06-08T01:29:10.712Z,10.00
2018-06-08T01:31:39.195Z,8.23
2018-06-08T01:34:07.397Z,11.33
2018-06-08T01:36:35.641Z,9.60
2018-06-08T01:39:04.404Z,10.40
2018-06-08T01:41:32.668Z,9.73
2018-06-08T01:44:01.085Z,9.40
2018-06-08T01:46:29.534Z,8.07
2018-06-08T01:48:58.044Z,9.07
2018-06-08T01:51:26.263Z,11.97
2018-06-08T01:53:54.666Z,9.93
2018-06-08T01:56:23.080Z,9.23
2018-06-08T01:58:51.214Z,8.53
2018-06-08T02:01:19.624Z,6.23
2018-06-08T02:03:47.902Z,9.93
2018-06-08T02:06:16.218Z,9.13
2018-06-08T02:08:44.623Z,11.90
2018-06-08T02:11:12.912Z,6.53
2018-06-08T02:13:41.310Z,8.23
2018-06-08T02:16:09.690Z,8.13
2018-06-08T02:18:38.042Z,6.47
2018-06-08T02:21:06.184Z,9.67
2018-06-08T02:23:34.554Z,9.57
2018-06-08T02:26:02.857Z,6.07
2018-06-08T02:28:31.274Z,9.77
2018-06-08T02:30:59.763Z,7.63
2018-06-08T02:33:28.136Z,8.47
2018-06-08T02:35:56.494Z,5.20
2018-06-08T02:38:24.865Z,8.33
2018-06-08T02:40:53.149Z,8.20
2018-06-08T02:43:21.342Z,7.60
2018-06-08T02:45:49.677Z,5.77
2018-06-08T02:48:18.300Z,11.77
2018-06-08T02:50:46.866Z,10.20
2018-06-08T02:53:15.240Z,8.37
2018-06-08T02:55:43.618Z,9.00
2018-06-08T02:58:12.120Z,7.93
2018-06-08T03:00:40.454Z,8.43
2018-06-08T03:03:08.548Z,8.73
2018-06-08T03:05:36.881Z,9.83
2018-06-08T03:08:05.300Z,9.23
2018-06-08T03:10:33.515Z,8.47
2018-06-08T03:13:01.961Z,9.10
2018-06-08T03:15:30.336Z,11.13
2018-06-08T03:17:58.582Z,12.03
2018-06-08T03:20:26.925Z,9.93
2018-06-08T03:22:55.590Z,10.03
2018-06-08T03:25:23.972Z,7.37
2018-06-08T03:27:52.422Z,11.63
2018-06-08T03:30:20.676Z,9.53
2018-06-08T03:32:48.983Z,11.47
2018-06-08T03:35:17.277Z,12.67
2018-06-08T03:37:45.518Z,10.43
2018-06-08T03:40:14.033Z,8.97
2018-06-08T03:42:42.416Z,9.03
2018-06-08T03:45:10.868Z,10.67
2018-06-08T03:47:39.062Z,8.90
2018-06-08T03:50:07.447Z,9.67
2018-06-08T03:52:35.693Z,8.47
2018-06-08T03:55:04.066Z,9.50
2018-06-08T03:57:32.477Z,14.13
2018-06-08T04:00:00.853Z,9.60
2018-06-08T04:02:29.368Z,9.37
2018-06-08T04:04:57.556Z,11.83
2018-06-08T04:07:25.966Z,13.07
2018-06-08T04:09:54.222Z,11.47
2018-06-08T04:12:22.653Z,14.53
2018-06-08T04:14:51.124Z,10.97
2018-06-08T04:17:19.398Z,9.90
2018-06-08T04:19:47.758Z,12.53
2018-06-08T04:22:16.233Z,10.10
2018-06-08T04:24:44.739Z,11.67
2018-06-08T04:27:13.094Z,9.53
2018-06-08T04:29:41.369Z,11.13
2018-06-08T04:32:09.733Z,9.53
2018-06-08T04:34:38.046Z,9.90
2018-06-08T04:37:06.323Z,12.33
2018-06-08T04:39:34.749Z,10.77
2018-06-08T04:42:03.220Z,8.77
2018-06-08T04:44:31.507Z,12.43
2018-06-08T04:46:59.833Z,9.10
2018-06-08T04:49:28.209Z,10.90
2018-06-08T04:51:56.577Z,10.43
2018-06-08T04:54:24.864Z,12.87
2018-06-08T04:56:53.242Z,10.13
2018-06-08T04:59:21.595Z,15.50
2018-06-08T05:02:13.997Z,11.77
2018-06-08T05:05:00.965Z,13.20
2018-06-08T05:07:29.457Z,16.00
2018-06-08T05:09:57.726Z,14.93
2018-06-08T05:12:26.108Z,14.63
2018-06-08T05:14:54.461Z,16.27
2018-06-08T05:17:22.659Z,14.80
2018-06-08T05:19:59.666Z,15.80
2018-06-08T05:22:27.969Z,13.03
2018-06-08T05:24:56.398Z,19.67
2018-06-08T05:27:24.666Z,16.50
2018-06-08T05:29:53.054Z,15.50
2018-06-08T05:32:21.446Z,16.47
2018-06-08T05:34:49.918Z,23.10
2018-06-08T05:37:18.136Z,14.47
2018-06-08T05:39:46.417Z,19.63
2018-06-08T05:42:14.945Z,18.50
2018-06-08T05:44:43.339Z,22.10
2018-06-08T05:47:11.562Z,20.57
2018-06-08T05:49:39.849Z,23.23
2018-06-08T05:52:08.107Z,25.10
2018-06-08T05:54:36.391Z,18.50
2018-06-08T05:57:04.760Z,25.10
2018-06-08T05:59:33.283Z,28.13
2018-06-08T06:02:01.829Z,29.03
2018-06-08T06:04:30.116Z,19.90
2018-06-08T06:06:58.524Z,22.57
2018-06-08T06:09:26.874Z,16.47
2018-06-08T06:11:55.380Z,18.10
2018-06-08T06:14:23.859Z,13.83
2018-06-08T06:16:52.214Z,11.20
2018-06-08T06:19:20.657Z,16.00
2018-06-08T06:21:49.093Z,15.40
2018-06-08T06:24:17.314Z,10.90
2018-06-08T06:26:45.847Z,18.83
2018-06-08T06:29:14.342Z,9.73
2018-06-08T06:31:43.118Z,10.67
2018-06-08T06:34:11.497Z,7.87
2018-06-08T06:36:39.873Z,8.97
2018-06-08T06:39:08.353Z,9.33
2018-06-08T06:41:36.834Z,9.17
2018-06-08T06:44:05.418Z,11.33
2018-06-08T06:46:33.879Z,8.17
2018-06-08T06:49:02.154Z,7.63
2018-06-08T06:51:30.403Z,8.87
2018-06-08T06:53:58.812Z,8.27
2018-06-08T06:56:27.128Z,11.57
2018-06-08T06:58:55.577Z,6.40
2018-06-08T07:01:23.924Z,9.80
2018-06-08T07:03:52.243Z,7.97
2018-06-08T07:06:20.694Z,9.27
2018-06-08T07:08:49.102Z,8.13
2018-06-08T07:11:17.782Z,7.13
2018-06-08T07:13:45.944Z,9.87
2018-06-08T07:16:14.234Z,6.57
2018-06-08T07:18:42.762Z,8.57
2018-06-08T07:21:11.156Z,6.90
2018-06-08T07:23:39.571Z,7.97
2018-06-08T07:26:08.053Z,7.37
2018-06-08T07:28:36.517Z,8.43
2018-06-08T07:31:04.784Z,7.00
2018-06-08T07:33:33.054Z,9.83
2018-06-08T07:36:01.439Z,11.37
2018-06-08T07:38:29.924Z,9.70
2018-06-08T07:40:58.305Z,6.87
2018-06-08T07:43:26.593Z,9.00
2018-06-08T07:45:54.975Z,8.67
2018-06-08T07:48:23.442Z,6.70
2018-06-08T07:50:51.667Z,8.90
2018-06-08T07:53:20.004Z,10.03
2018-06-08T07:55:48.278Z,8.50
2018-06-08T07:58:16.751Z,5.43
2018-06-08T08:00:45.005Z,6.53
2018-06-08T08:03:13.519Z,7.37
2018-06-08T08:05:42.103Z,8.00
2018-06-08T08:08:10.439Z,4.13
2018-06-08T08:10:38.855Z,7.60
2018-06-08T08:13:07.340Z,9.23
2018-06-08T08:15:35.795Z,7.87
2018-06-08T08:18:04.037Z,8.73
2018-06-08T08:20:32.345Z,11.20
2018-06-08T08:23:00.750Z,7.00
2018-06-08T08:25:29.106Z,7.50
2018-06-08T08:27:57.361Z,4.10
2018-06-08T08:30:25.651Z,5.43
2018-06-08T08:32:53.908Z,6.93
2018-06-08T08:35:22.270Z,8.23
2018-06-08T08:37:50.551Z,3.57
2018-06-08T08:40:18.837Z,4.43
2018-06-08T08:42:47.158Z,5.40
2018-06-08T08:45:15.640Z,6.30
2018-06-08T08:47:43.872Z,5.17
2018-06-08T08:50:12.065Z,3.60
2018-06-08T08:52:40.218Z,7.00
2018-06-08T08:55:08.638Z,7.03
2018-06-08T08:57:36.986Z,4.17
2018-06-08T09:00:05.295Z,6.17
2018-06-08T09:02:33.637Z,5.90
2018-06-08T09:05:02.150Z,4.27
2018-06-08T09:07:30.531Z,6.77
2018-06-08T09:09:58.790Z,3.97
2018-06-08T09:12:27.024Z,11.53
2018-06-08T09:14:55.341Z,4.23
2018-06-08T09:17:23.890Z,3.33
2018-06-08T09:19:52.390Z,5.37
2018-06-08T09:22:20.771Z,5.30
2018-06-08T09:24:49.071Z,3.50
2018-06-08T09:27:17.323Z,4.47
2018-06-08T09:29:45.576Z,5.00
2018-06-08T09:32:14.108Z,8.50
2018-06-08T09:34:42.275Z,4.53
2018-06-08T09:37:10.553Z,10.00
2018-06-08T09:39:38.936Z,5.20
2018-06-08T09:42:07.287Z,6.10
2018-06-08T09:44:35.586Z,8.13
2018-06-08T09:47:03.960Z,5.53
2018-06-08T09:49:32.346Z,6.50
2018-06-08T09:52:00.590Z,4.87
2018-06-08T09:54:28.789Z,5.77
2018-06-08T09:56:57.070Z,6.53
2018-06-08T09:59:25.547Z,12.07
2018-06-08T10:01:53.924Z,7.97
2018-06-08T10:04:22.276Z,8.23
2018-06-08T10:06:50.665Z,8.10
2018-06-08T10:09:18.965Z,5.23
2018-06-08T10:11:47.439Z,7.67
2018-06-08T10:14:15.546Z,10.60
2018-06-08T10:16:43.814Z,10.97
2018-06-08T10:19:12.265Z,10.23
2018-06-08T10:21:40.540Z,11.97
2018-06-08T10:24:09.021Z,7.63
2018-06-08T10:26:37.403Z,11.17
2018-06-08T10:29:05.776Z,11.73
2018-06-08T10:31:34.127Z,12.03
2018-06-08T10:34:02.414Z,13.70
2018-06-08T10:36:30.809Z,13.47
2018-06-08T10:38:59.155Z,13.03
2018-06-08T10:41:27.543Z,12.50
2018-06-08T10:43:55.842Z,13.57
2018-06-08T10:46:24.426Z,12.87
2018-06-08T10:48:52.803Z,11.07
2018-06-08T10:51:21.110Z,14.00
2018-06-08T10:53:49.739Z,11.50
2018-06-08T10:56:18.039Z,12.50
2018-06-08T10:58:46.521Z,12.63
2018-06-08T11:01:14.906Z,17.07
2018-06-08T11:03:43.387Z,16.53
2018-06-08T11:06:11.862Z,16.53
2018-06-08T11:08:40.324Z,16.97
2018-06-08T11:11:08.603Z,17.60
2018-06-08T11:13:36.837Z,20.00
2018-06-08T11:16:05.273Z,21.27
2018-06-08T11:18:33.738Z,20.77
2018-06-08T11:21:02.022Z,15.40
2018-06-08T11:23:30.378Z,11.60
2018-06-08T11:25:58.643Z,16.47
2018-06-08T11:28:27.032Z,11.47
2018-06-08T11:30:55.423Z,17.03
2018-06-08T11:33:23.711Z,20.10
2018-06-08T11:35:51.927Z,17.90
2018-06-08T11:38:20.224Z,19.97
2018-06-08T11:40:48.544Z,16.83
2018-06-08T11:43:16.849Z,12.47
2018-06-08T11:45:45.537Z,18.03
2018-06-08T11:48:13.950Z,22.60
2018-06-08T11:50:42.256Z,23.80
2018-06-08T11:53:10.629Z,22.07
2018-06-08T11:55:38.910Z,13.33
2018-06-08T11:58:07.374Z,26.20
2018-06-08T12:00:36.326Z,20.70
2018-06-08T12:03:04.843Z,18.97
2018-06-08T12:05:33.220Z,17.83
2018-06-08T12:08:01.589Z,23.87
2018-06-08T12:10:29.997Z,13.40
2018-06-08T12:12:58.685Z,19.80
2018-06-08T12:15:27.149Z,16.27
2018-06-08T12:17:55.522Z,21.50
2018-06-08T12:20:23.816Z,13.97
2018-06-08T12:22:52.201Z,20.27
2018-06-08T12:25:20.649Z,20.03
2018-06-08T12:27:49.425Z,22.07
2018-06-08T12:30:17.610Z,16.83
2018-06-08T12:32:46.016Z,18.47
2018-06-08T12:35:14.495Z,21.57
2018-06-08T12:37:42.986Z,16.83
2018-06-08T12:40:11.461Z,21.57
2018-06-08T12:42:40.050Z,21.23
2018-06-08T12:45:08.395Z,18.87
2018-06-08T12:47:36.712Z,26.30
2018-06-08T12:50:05.020Z,17.77
2018-06-08T12:52:33.450Z,15.00
2018-06-08T12:55:01.933Z,22.37
2018-06-08T12:57:30.157Z,18.37
2018-06-08T12:59:58.589Z,22.37
2018-06-08T13:02:27.162Z,17.23
2018-06-08T13:04:55.444Z,17.70
2018-06-08T13:07:23.926Z,20.73
2018-06-08T13:09:52.232Z,18.50
2018-06-08T13:12:20.560Z,18.47
2018-06-08T13:14:48.835Z,23.83
2018-06-08T13:17:17.226Z,23.13
2018-06-08T13:19:46.737Z,22.67
2018-06-08T13:22:15.066Z,21.97
2018-06-08T13:24:43.344Z,21.67
2018-06-08T13:27:11.752Z,19.83
2018-06-08T13:29:40.045Z,13.97
2018-06-08T13:32:08.629Z,18.33
2018-06-08T13:34:36.831Z,17.13
2018-06-08T13:37:05.166Z,24.90
2018-06-08T13:39:33.631Z,22.17
2018-06-08T13:42:02.032Z,16.00
2018-06-08T13:44:30.626Z,21.07
2018-06-08T13:46:59.100Z,22.77
2018-06-08T13:49:27.557Z,21.67
2018-06-08T13:51:55.971Z,21.77
2018-06-08T13:54:24.447Z,24.80
2018-06-08T13:56:52.803Z,29.27
2018-06-08T13:59:21.099Z,24.23
2018-06-08T14:01:49.560Z,22.87
2018-06-08T14:04:17.819Z,20.37
2018-06-08T14:06:46.336Z,24.63
2018-06-08T14:09:14.663Z,24.17
2018-06-08T14:11:43.166Z,23.47
2018-06-08T14:14:11.415Z,24.87
2018-06-08T14:16:39.852Z,26.10
2018-06-08T14:19:08.431Z,21.03
2018-06-08T14:21:36.813Z,21.73
2018-06-08T14:24:05.487Z,28.07
2018-06-08T14:26:33.830Z,24.53
2018-06-08T14:29:02.234Z,24.47
2018-06-08T14:31:30.525Z,25.53
2018-06-08T14:33:59.800Z,25.13
2018-06-08T14:36:28.220Z,24.27
2018-06-08T14:38:56.578Z,33.93
2018-06-08T14:41:24.791Z,18.03
2018-06-08T14:43:53.227Z,20.77
2018-06-08T14:46:21.521Z,21.63
2018-06-08T14:48:49.833Z,25.40
2018-06-08T14:51:18.265Z,22.97
2018-06-08T14:53:46.646Z,22.93
2018-06-08T14:56:14.923Z,21.93
2018-06-08T14:58:43.400Z,26.30
2018-06-08T15:01:11.884Z,29.13
2018-06-08T15:03:40.028Z,28.47
2018-06-08T15:06:08.207Z,21.60
2018-06-08T15:08:36.605Z,18.43
2018-06-08T15:11:04.975Z,23.87
2018-06-08T15:13:33.210Z,22.17
2018-06-08T15:16:01.841Z,23.77
2018-06-08T15:18:30.216Z,28.17
2018-06-08T15:20:58.696Z,21.10
2018-06-08T15:23:27.078Z,26.73
2018-06-08T15:25:55.469Z,27.23
2018-06-08T15:28:25.423Z,26.97
2018-06-08T15:30:53.833Z,24.90
2018-06-08T15:33:22.094Z,20.20
2018-06-08T15:35:50.387Z,26.80
2018-06-08T15:38:18.750Z,29.30
2018-06-08T15:40:47.019Z,24.50
2018-06-08T15:43:15.332Z,23.10
2018-06-08T15:45:43.832Z,32.60
2018-06-08T15:48:12.333Z,30.80
2018-06-08T15:50:41.081Z,22.83
2018-06-08T15:53:09.191Z,28.03
2018-06-08T15:55:37.570Z,21.13
2018-06-08T15:58:05.963Z,23.27
2018-06-08T16:00:34.459Z,24.03
2018-06-08T16:03:02.636Z,18.93
2018-06-08T16:05:30.912Z,20.60
2018-06-08T16:07:59.316Z,24.93
2018-06-08T16:10:27.695Z,21.73
2018-06-08T16:12:56.142Z,20.40
2018-06-08T16:15:24.539Z,23.40
2018-06-08T16:17:53.017Z,27.17
2018-06-08T16:20:21.290Z,19.67
2018-06-08T16:22:49.540Z,28.40
2018-06-08T16:25:17.965Z,25.10
2018-06-08T16:27:46.313Z,26.10
2018-06-08T16:30:14.692Z,21.47
2018-06-08T16:32:42.934Z,27.67
2018-06-08T16:35:11.375Z,22.83
2018-06-08T16:37:39.726Z,21.53
2018-06-08T16:40:07.991Z,25.83
2018-06-08T16:42:36.330Z,25.93
2018-06-08T16:45:04.627Z,29.33
2018-06-08T16:47:32.925Z,28.93
2018-06-08T16:50:00.955Z,22.60
2018-06-08T16:52:29.270Z,29.67
2018-06-08T16:54:57.570Z,30.30
2018-06-08T16:57:25.819Z,19.53
2018-06-08T16:59:54.087Z,29.40
2018-06-08T17:02:22.507Z,23.63
2018-06-08T17:04:50.784Z,28.43
2018-06-08T17:07:19.334Z,26.00
2018-06-08T17:09:47.823Z,26.30
2018-06-08T17:12:16.177Z,27.90
2018-06-08T17:14:44.708Z,23.33
2018-06-08T17:17:13.175Z,27.00
2018-06-08T17:19:41.433Z,21.97
2018-06-08T17:22:09.739Z,28.00
2018-06-08T17:24:38.132Z,21.93
2018-06-08T17:27:06.497Z,23.63
2018-06-08T17:29:34.847Z,28.27
2018-06-08T17:32:03.459Z,22.37
2018-06-08T17:34:31.806Z,27.77
2018-06-08T17:37:00.091Z,22.37
2018-06-08T17:39:28.490Z,22.77
2018-06-08T17:41:56.949Z,25.30
2018-06-08T17:44:25.232Z,22.63
2018-06-08T17:46:53.522Z,22.97
2018-06-08T17:49:22.347Z,16.90
2018-06-08T17:51:50.906Z,18.93
2018-06-08T17:54:19.232Z,23.33
2018-06-08T17:56:47.544Z,20.23
2018-06-08T17:59:15.895Z,20.60
2018-06-08T18:01:44.206Z,20.87
2018-06-08T18:04:12.552Z,19.57
2018-06-08T18:06:40.954Z,30.17
2018-06-08T18:09:09.330Z,21.97
2018-06-08T18:11:37.479Z,28.23
2018-06-08T18:14:06.603Z,25.03
2018-06-08T18:16:35.184Z,28.03
2018-06-08T18:19:03.646Z,19.50
2018-06-08T18:21:31.939Z,15.70
2018-06-08T18:24:00.299Z,25.00
2018-06-08T18:26:28.769Z,21.17
2018-06-08T18:28:57.148Z,21.97
2018-06-08T18:31:25.525Z,14.43
2018-06-08T18:33:54.039Z,25.23
2018-06-08T18:36:22.501Z,14.87
2018-06-08T18:38:50.795Z,14.63
2018-06-08T18:41:19.107Z,20.57
2018-06-08T18:43:47.407Z,13.63
2018-06-08T18:46:15.931Z,15.97
2018-06-08T18:48:44.305Z,15.43
2018-06-08T18:51:12.629Z,15.63
2018-06-08T18:53:40.858Z,12.33
2018-06-08T18:56:09.333Z,18.50
2018-06-08T18:58:37.686Z,11.93
2018-06-08T19:01:05.928Z,18.03
2018-06-08T19:03:34.240Z,13.97
2018-06-08T19:06:02.398Z,18.73
2018-06-08T19:08:30.713Z,11.10
2018-06-08T19:10:58.988Z,10.83
2018-06-08T19:13:27.222Z,11.20
2018-06-08T19:15:55.493Z,12.27
2018-06-08T19:18:24.005Z,11.73
2018-06-08T19:20:52.657Z,15.77
2018-06-08T19:23:21.059Z,21.73
2018-06-08T19:25:50.500Z,13.83
2018-06-08T19:28:22.129Z,18.37
2018-06-08T19:30:50.567Z,15.60
2018-06-08T19:33:18.853Z,12.80
2018-06-08T19:35:48.424Z,11.10
2018-06-08T19:38:16.920Z,10.90
2018-06-08T19:40:45.300Z,12.07
2018-06-08T19:43:14.037Z,8.63
2018-06-08T19:45:43.351Z,12.17
2018-06-08T19:48:11.920Z,14.23
2018-06-08T19:50:40.805Z,12.00
2018-06-08T19:53:09.505Z,6.53
2018-06-08T19:55:38.379Z,9.30
2018-06-08T19:58:07.552Z,10.10
2018-06-08T20:00:37.533Z,9.93
2018-06-08T20:03:05.972Z,10.07
2018-06-08T20:05:34.264Z,8.73
2018-06-08T20:08:02.644Z,8.83
2018-06-08T20:10:31.262Z,8.83
2018-06-08T20:13:00.721Z,8.93
2018-06-08T20:15:30.927Z,7.77
2018-06-08T20:17:59.483Z,9.83
2018-06-08T20:20:28.198Z,9.33
2018-06-08T20:22:58.036Z,13.83
2018-06-08T20:25:26.839Z,7.97
2018-06-08T20:27:55.407Z,10.20
2018-06-08T20:30:24.008Z,11.07
2018-06-08T20:32:52.552Z,7.00
2018-06-08T20:35:24.668Z,11.07
2018-06-08T20:37:53.236Z,6.70
2018-06-08T20:40:23.657Z,8.15
2018-06-08T20:42:52.249Z,6.47
2018-06-08T20:45:22.436Z,9.20
2018-06-08T20:47:53.003Z,10.23
2018-06-08T20:50:21.305Z,6.77
2018-06-08T20:52:49.714Z,7.90
2018-06-08T20:55:17.885Z,6.60
2018-06-08T20:57:51.611Z,5.73
2018-06-08T21:00:20.008Z,4.90
2018-06-08T21:02:48.343Z,8.80
2018-06-08T21:05:16.710Z,7.23
2018-06-08T21:07:44.952Z,9.10
2018-06-08T21:10:13.395Z,6.13
2018-06-08T21:12:41.875Z,10.57
2018-06-08T21:15:10.152Z,6.70
2018-06-08T21:17:38.457Z,8.77
2018-06-08T21:20:06.762Z,9.10
2018-06-08T21:22:35.080Z,10.50
2018-06-08T21:25:03.418Z,8.87
2018-06-08T21:27:31.734Z,11.57
2018-06-08T21:30:00.082Z,7.90
2018-06-08T21:32:28.493Z,10.60
2018-06-08T21:34:56.826Z,10.60
2018-06-08T21:37:25.090Z,8.70
2018-06-08T21:39:53.522Z,4.90
2018-06-08T21:42:22.210Z,7.10
2018-06-08T21:44:50.442Z,6.80
2018-06-08T21:47:18.708Z,8.17
2018-06-08T21:49:47.033Z,6.67
2018-06-08T21:52:15.416Z,9.27
2018-06-08T21:54:43.645Z,8.33
2018-06-08T21:57:11.965Z,6.10
2018-06-08T21:59:40.448Z,8.13
2018-06-08T22:02:08.815Z,9.53
2018-06-08T22:04:37.130Z,8.50
2018-06-08T22:07:05.583Z,7.30
2018-06-08T22:09:33.902Z,9.43
2018-06-08T22:12:02.212Z,7.97
2018-06-08T22:14:30.614Z,7.00
2018-06-08T22:16:59.000Z,5.80
2018-06-08T22:19:27.669Z,9.47
2018-06-08T22:21:55.975Z,9.30
2018-06-08T22:24:24.179Z,9.50
2018-06-08T22:26:52.454Z,8.10
2018-06-08T22:29:20.755Z,6.63
2018-06-08T22:31:49.130Z,10.03
2018-06-08T22:34:17.534Z,9.07
2018-06-08T22:36:45.912Z,6.97
2018-06-08T22:39:14.401Z,5.80
2018-06-08T22:41:42.877Z,9.43
2018-06-08T22:44:11.123Z,6.30
2018-06-08T22:46:39.428Z,5.47
2018-06-08T22:49:07.803Z,6.17
2018-06-08T22:51:36.157Z,8.40
2018-06-08T22:54:04.428Z,6.40
2018-06-08T22:56:32.811Z,4.40
2018-06-08T22:59:00.935Z,6.37
2018-06-08T23:01:29.979Z,5.17
2018-06-08T23:03:58.358Z,9.83
2018-06-08T23:06:26.736Z,7.63
2018-06-08T23:08:54.987Z,5.27
2018-06-08T23:11:23.321Z,6.93
2018-06-08T23:13:51.662Z,7.03
2018-06-08T23:16:19.942Z,7.97
2018-06-08T23:18:48.177Z,4.53
2018-06-08T23:21:16.482Z,4.87
2018-06-08T23:23:44.793Z,6.17
2018-06-08T23:26:13.039Z,4.00
2018-06-08T23:28:41.201Z,4.70
2018-06-08T23:31:09.617Z,7.43
2018-06-08T23:33:37.993Z,4.70
2018-06-08T23:36:06.479Z,4.97
2018-06-08T23:38:34.721Z,5.37
2018-06-08T23:41:02.998Z,7.17
2018-06-08T23:43:33.114Z,5.23
2018-06-08T23:45:59.764Z,5.17
2018-06-08T23:48:28.161Z,8.23
2018-06-08T23:50:56.492Z,5.10
2018-06-08T23:53:24.768Z,5.90
2018-06-08T23:55:53.287Z,10.10
2018-06-08T23:58:21.562Z,4.40
